Time;durP1;ratioP1;P1;durP2;ratioP2;P2;SDS_P1;SDS_P2;PMS_P1;PMS_P2;Temp;Humidity;BMP_temperature;BMP_pressure;BME280_temperature;BME280_humidity;BME280_pressure;Samples;Min_cycle;Max_cycle;Signal;HPM_P1;HPM_P2
2022/05/22 00:01:57;;;;;;;3.65;1.65;;;;;;;19.64;38.06;100321.50;5386082;32;34601;-73
2022/05/22 00:05:00;;;;;;;4.00;1.83;;;;;;;20.59;36.33;100310.38;5369224;32;36806;-72
2022/05/22 00:08:03;;;;;;;4.85;1.70;;;;;;;20.18;37.27;100314.56;5382736;32;34797;-72
2022/05/22 00:11:05;;;;;;;3.87;1.70;;;;;;;19.79;38.26;100324.78;5392494;32;34967;-73
2022/05/22 00:14:11;;;;;;;2.47;1.90;;;;;;;19.89;38.33;100320.38;5359695;32;35098;-75
2022/05/22 00:17:14;;;;;;;2.47;1.80;;;;;;;20.34;37.36;100306.16;5383338;32;44831;-75
2022/05/22 00:20:16;;;;;;;6.20;1.92;;;;;;;19.32;39.64;100315.94;5369219;32;35168;-72
2022/05/22 00:23:18;;;;;;;3.27;2.00;;;;;;;19.39;39.71;100311.84;5391628;32;34885;-73
2022/05/22 00:26:20;;;;;;;2.70;1.73;;;;;;;19.25;39.79;100309.38;5374525;32;35536;-71
2022/05/22 00:29:22;;;;;;;3.17;1.80;;;;;;;19.57;39.14;100314.87;5364775;32;34237;-72
2022/05/22 00:32:24;;;;;;;2.08;1.73;;;;;;;19.52;39.07;100311.75;5388204;32;34702;-73
2022/05/22 00:35:26;;;;;;;3.70;1.73;;;;;;;19.38;39.34;100314.59;5373805;32;34671;-72
2022/05/22 00:38:29;;;;;;;2.43;1.90;;;;;;;19.70;38.65;100307.66;5398357;32;35339;-71
2022/05/22 00:41:32;;;;;;;2.92;1.85;;;;;;;19.13;39.78;100299.66;5376661;32;35287;-74
2022/05/22 00:44:34;;;;;;;3.33;1.62;;;;;;;18.83;40.34;100306.31;5391650;32;34920;-73
2022/05/22 00:47:37;;;;;;;4.10;2.00;;;;;;;19.32;39.41;100307.06;5382804;32;34624;-70
2022/05/22 00:50:39;;;;;;;3.97;1.65;;;;;;;19.38;38.86;100304.78;5362645;32;34961;-74
2022/05/22 00:53:45;;;;;;;3.90;1.80;;;;;;;19.38;38.92;100314.59;5397262;32;43177;-73
2022/05/22 00:56:52;;;;;;;4.05;1.80;;;;;;;19.65;38.22;100303.69;5375248;32;34507;-71
2022/05/22 00:59:58;;;;;;;4.93;1.75;;;;;;;19.98;37.59;100303.69;5394095;32;34739;-71
2022/05/22 01:06:26;;;;;;;3.00;1.60;;;;;;;18.86;39.37;100299.91;5368348;32;34755;-70
2022/05/22 01:09:28;;;;;;;2.47;1.75;;;;;;;19.21;38.58;100292.78;5394842;32;34877;-73
2022/05/22 01:12:30;;;;;;;3.97;1.90;;;;;;;19.10;38.86;100287.41;5364112;32;34222;-71
2022/05/22 01:15:32;;;;;;;9.80;1.83;;;;;;;19.32;38.08;100286.62;5388871;32;35124;-75
2022/05/22 01:18:46;;;;;;;3.22;1.40;;;;;;;19.62;37.38;100277.25;5371586;32;34707;-71
2022/05/22 01:21:57;;;;;;;3.40;1.60;;;;;;;19.01;38.52;100273.97;5376916;32;45422;-72
2022/05/22 01:24:59;;;;;;;3.13;1.67;;;;;;;19.25;37.97;100277.37;5371693;32;34885;-71
2022/05/22 01:28:02;;;;;;;3.17;1.77;;;;;;;19.26;37.94;100281.78;5377044;32;33525;-73
2022/05/22 01:31:05;;;;;;;3.35;1.70;;;;;;;19.13;38.31;100284.53;5393675;32;34709;-73
2022/05/22 01:34:07;;;;;;;1.90;1.60;;;;;;;18.81;39.06;100284.31;5382645;32;35217;-71
2022/05/22 01:37:09;;;;;;;3.05;1.60;;;;;;;18.79;39.10;100285.38;5394678;32;34644;-71
2022/05/22 01:40:12;;;;;;;3.40;1.50;;;;;;;19.33;37.82;100284.81;5377567;32;45058;-71
2022/05/22 01:43:14;;;;;;;2.33;1.40;;;;;;;19.07;38.45;100290.31;5380521;32;34682;-71
2022/05/22 01:46:17;;;;;;;3.87;1.80;;;;;;;18.82;38.65;100280.66;5389949;32;35022;-73
2022/05/22 01:49:19;;;;;;;4.95;1.55;;;;;;;19.26;37.92;100273.78;5381659;32;34801;-74
2022/05/22 01:52:21;;;;;;;5.80;1.50;;;;;;;18.21;39.79;100285.16;5395228;32;33044;-72
2022/05/22 01:55:23;;;;;;;3.67;1.50;;;;;;;18.73;38.56;100284.00;5378673;32;34871;-73
2022/05/22 01:58:25;;;;;;;3.97;1.50;;;;;;;18.74;38.48;100288.37;5400467;32;34759;-73
2022/05/22 02:01:27;;;;;;;5.25;1.50;;;;;;;18.87;38.24;100282.97;5376455;32;32770;-72
2022/05/22 02:04:30;;;;;;;2.42;1.40;;;;;;;19.13;37.55;100286.34;5372947;32;34876;-76
2022/05/22 02:11:04;;;;;;;3.12;1.60;;;;;;;19.04;37.84;100284.37;5376400;32;35357;-71
2022/05/22 02:14:06;;;;;;;3.33;1.70;;;;;;;18.39;39.23;100278.50;5376681;32;34752;-75
2022/05/22 02:17:08;;;;;;;4.17;1.60;;;;;;;18.97;38.19;100286.66;5368132;32;35399;-75
2022/05/22 02:20:11;;;;;;;6.37;1.65;;;;;;;18.34;39.44;100275.31;5383467;32;42273;-75
2022/05/22 02:23:13;;;;;;;3.85;2.37;;;;;;;18.38;39.48;100279.47;5377290;32;35215;-75
2022/05/22 02:26:16;;;;;;;3.50;1.62;;;;;;;18.19;40.37;100276.44;5372322;32;34746;-73
2022/05/22 02:29:18;;;;;;;2.05;1.70;;;;;;;17.69;41.82;100280.84;5396546;32;35449;-71
2022/05/22 02:32:20;;;;;;;8.90;1.70;;;;;;;18.25;40.77;100252.06;5378054;32;34594;-73
2022/05/22 02:35:22;;;;;;;2.60;1.60;;;;;;;18.31;41.09;100277.37;5391140;32;36183;-75
2022/05/22 02:38:24;;;;;;;3.17;1.87;;;;;;;17.77;42.48;100286.50;5384407;32;36744;-75
2022/05/22 02:41:26;;;;;;;1.58;1.40;;;;;;;17.86;42.22;100279.72;5381043;32;33881;-72
2022/05/22 02:44:29;;;;;;;3.17;1.60;;;;;;;17.92;42.08;100281.09;5390122;32;34699;-73
2022/05/22 02:47:33;;;;;;;6.70;1.73;;;;;;;17.83;42.45;100282.56;5380830;32;36385;-74
2022/05/22 02:50:35;;;;;;;4.30;1.90;;;;;;;18.21;41.68;100284.28;5385357;32;35494;-74
2022/05/22 02:53:37;;;;;;;3.30;1.70;;;;;;;18.00;42.32;100282.22;5383423;32;34562;-73
2022/05/22 02:56:40;;;;;;;2.37;1.77;;;;;;;18.27;41.88;100278.53;5390735;32;34376;-72
2022/05/22 02:59:42;;;;;;;;;;;;;;;17.66;43.09;100283.75;5377314;32;45920;-73
2022/05/22 03:02:44;;;;;;;7.15;1.98;;;;;;;18.24;42.05;100268.13;5377953;32;34253;-71
2022/05/22 03:09:21;;;;;;;8.10;2.20;;;;;;;17.92;42.74;100273.12;5334634;32;35468;-73
2022/05/22 03:12:24;;;;;;;4.50;2.07;;;;;;;18.09;42.78;100283.38;5378378;32;36239;-74
2022/05/22 03:15:26;;;;;;;3.53;1.98;;;;;;;17.62;43.55;100290.22;5369326;32;33130;-73
2022/05/22 03:18:28;;;;;;;3.47;1.83;;;;;;;17.58;43.75;100286.06;5390428;32;34689;-71
2022/05/22 03:21:30;;;;;;;2.47;1.90;;;;;;;16.89;45.47;100297.91;5376292;32;34925;-72
2022/05/22 03:24:32;;;;;;;3.77;1.70;;;;;;;17.50;44.06;100299.03;5374610;32;34825;-72
2022/05/22 03:27:35;;;;;;;2.33;1.70;;;;;;;17.43;44.11;100292.47;5387502;32;34816;-73
2022/05/22 03:30:38;;;;;;;2.90;1.70;;;;;;;17.67;42.51;100263.34;5376142;32;35342;-74
2022/05/22 03:33:40;;;;;;;3.60;1.90;;;;;;;17.96;41.90;100295.84;5398941;32;34587;-75
2022/05/22 03:36:42;;;;;;;3.50;1.77;;;;;;;17.70;42.47;100279.91;5377307;32;46831;-72
2022/05/22 03:39:44;;;;;;;3.20;1.65;;;;;;;17.91;41.57;100276.72;5387443;32;34754;-72
2022/05/22 03:42:47;;;;;;;4.40;1.60;;;;;;;17.82;41.32;100283.53;5390577;32;34124;-74
2022/05/22 03:45:49;;;;;;;2.35;1.62;;;;;;;18.37;39.67;100280.41;5373277;32;34416;-75
2022/05/22 03:48:51;;;;;;;2.75;1.58;;;;;;;18.25;40.12;100285.78;5399164;32;35372;-72
2022/05/22 03:51:54;;;;;;;4.37;1.70;;;;;;;18.14;39.79;100295.38;5377480;32;34378;-74
2022/05/22 03:54:56;;;;;;;3.80;1.80;;;;;;;18.02;39.93;100298.06;5378792;32;34676;-73
2022/05/22 03:57:58;;;;;;;3.90;1.73;;;;;;;18.44;39.32;100295.94;5380570;32;34602;-73
2022/05/22 04:01:00;;;;;;;3.90;1.70;;;;;;;18.15;39.18;100306.88;5381633;32;34974;-73
2022/05/22 04:04:03;;;;;;;3.63;1.60;;;;;;;18.03;39.72;100305.06;5383970;32;34596;-74
2022/05/22 04:07:05;;;;;;;8.48;1.98;;;;;;;18.26;39.51;100306.94;5376247;32;34655;-73
2022/05/22 04:10:09;;;;;;;2.50;1.73;;;;;;;18.48;38.97;100310.69;5393709;32;34583;-75
2022/05/22 04:13:11;;;;;;;3.67;1.60;;;;;;;18.57;38.96;100316.22;5360546;32;45677;-73
2022/05/22 04:16:13;;;;;;;2.87;1.57;;;;;;;18.14;40.20;100318.47;5389362;32;35443;-73
2022/05/22 04:19:16;;;;;;;3.33;1.55;;;;;;;18.27;39.99;100313.12;5361017;32;36264;-73
2022/05/22 04:22:18;;;;;;;6.13;1.90;;;;;;;18.22;40.26;100317.91;5369864;32;34710;-72
2022/05/22 04:25:21;;;;;;;3.63;1.40;;;;;;;17.67;41.29;100332.44;5387142;32;36275;-75
2022/05/22 04:28:24;;;;;;;2.53;1.50;;;;;;;17.74;41.24;100323.09;5373747;32;35343;-75
2022/05/22 04:31:27;;;;;;;2.83;1.50;;;;;;;18.39;39.99;100321.06;5391840;32;35534;-74
2022/05/22 04:34:29;;;;;;;2.40;1.37;;;;;;;18.42;40.04;100328.00;5364750;32;34911;-75
2022/05/22 04:37:31;;;;;;;2.00;1.50;;;;;;;17.93;41.15;100327.97;5395392;32;35081;-73
2022/05/22 04:40:34;;;;;;;3.25;1.58;;;;;;;17.76;41.22;100326.50;5376695;32;34963;-75
2022/05/22 04:43:37;;;;;;;4.15;1.75;;;;;;;18.07;40.53;100317.22;5380704;32;35420;-72
2022/05/22 04:46:39;;;;;;;6.65;2.20;;;;;;;18.54;39.72;100318.25;5393664;32;35385;-71
2022/05/22 04:49:41;;;;;;;2.35;1.45;;;;;;;17.85;41.11;100328.53;5379417;32;45251;-73
2022/05/22 04:52:43;;;;;;;9.13;2.42;;;;;;;18.56;39.31;100317.19;5395795;32;34532;-71
2022/05/22 04:55:52;;;;;;;2.90;1.50;;;;;;;19.67;37.47;100321.25;5375464;32;34248;-74
2022/05/22 04:58:54;;;;;;;4.93;1.70;;;;;;;19.98;36.61;100314.34;5399216;32;34271;-73
2022/05/22 05:01:56;;;;;;;4.47;1.70;;;;;;;21.65;33.25;100313.06;5375311;32;36168;-74
2022/05/22 05:04:59;;;;;;;2.17;1.55;;;;;;;21.54;33.13;100308.63;5372504;32;35098;-72
2022/05/22 05:08:01;;;;;;;2.97;1.55;;;;;;;20.58;35.29;100316.72;5386848;32;35449;-75
2022/05/22 05:11:03;;;;;;;1.92;1.40;;;;;;;21.81;33.01;100319.59;5388377;32;35713;-74
2022/05/22 05:14:05;;;;;;;3.30;2.35;;;;;;;20.90;34.42;100322.91;5375328;32;34780;-72
2022/05/22 05:17:12;;;;;;;3.20;1.73;;;;;;;21.40;33.04;100319.66;5368154;32;35032;-74
2022/05/22 05:20:18;;;;;;;3.85;1.45;;;;;;;20.85;34.47;100316.25;5381447;32;45818;-73
2022/05/22 05:23:20;;;;;;;2.55;1.35;;;;;;;20.93;34.02;100322.66;5385837;32;34719;-75
2022/05/22 05:26:22;;;;;;;4.47;1.60;;;;;;;21.27;33.76;100322.50;5372293;32;35406;-76
2022/05/22 05:29:25;;;;;;;;;;;;;;;21.28;33.80;100326.88;5394241;32;34513;-73
2022/05/22 05:32:28;;;;;;;3.85;1.30;;;;;;;22.56;31.74;100317.50;5378302;32;35462;-74
2022/05/22 05:35:31;;;;;;;6.80;2.85;;;;;;;22.84;31.16;100310.47;5376325;32;35306;-73
2022/05/22 05:38:33;;;;;;;2.50;1.60;;;;;;;23.75;29.59;100315.31;5383583;32;34974;-73
2022/05/22 05:41:55;;;;;;;2.60;1.40;;;;;;;24.01;29.29;100303.91;5376898;32;35100;-74
2022/05/22 05:44:57;;;;;;;4.87;1.50;;;;;;;24.87;27.88;100315.16;5393266;32;34855;-75
2022/05/22 05:48:00;;;;;;;4.25;1.48;;;;;;;25.00;27.76;100321.00;5382725;32;34541;-72
2022/05/22 05:51:02;;;;;;;4.40;1.70;;;;;;;23.40;30.10;100331.19;5391882;32;34565;-74
2022/05/22 05:54:04;;;;;;;3.42;1.40;;;;;;;22.68;31.82;100327.94;5382511;32;34209;-75
2022/05/22 05:57:07;;;;;;;2.78;1.60;;;;;;;23.26;30.69;100327.12;5386743;32;34723;-77
2022/05/22 06:00:12;;;;;;;2.58;1.40;;;;;;;22.91;31.73;100327.69;5364909;32;35507;-74
2022/05/22 06:03:14;;;;;;;1.80;1.30;;;;;;;22.17;31.87;100336.13;5379130;32;45185;-74
2022/05/22 06:06:21;;;;;;;2.10;1.40;;;;;;;22.98;29.58;100329.66;5385519;32;34205;-75
2022/05/22 06:09:23;;;;;;;2.58;1.60;;;;;;;21.95;32.16;100337.12;5367041;32;35835;-73
2022/05/22 06:12:25;;;;;;;2.25;1.30;;;;;;;22.92;30.97;100327.53;5378617;32;35462;-72
2022/05/22 06:15:27;;;;;;;4.78;1.73;;;;;;;24.75;28.21;100314.53;5372130;32;34869;-73
2022/05/22 06:18:29;;;;;;;4.50;1.50;;;;;;;24.65;28.11;100315.59;5392714;32;35149;-75
2022/05/22 06:21:32;;;;;;;2.78;1.50;;;;;;;23.08;30.25;100327.00;5373794;32;34943;-74
2022/05/22 06:24:37;;;;;;;1.75;1.45;;;;;;;23.26;30.21;100311.03;5375274;32;34215;-74
2022/05/22 06:27:39;;;;;;;3.37;1.42;;;;;;;22.25;31.45;100320.22;5391708;32;35718;-74
2022/05/22 06:30:42;;;;;;;6.50;1.50;;;;;;;23.65;29.30;100319.88;5376997;32;44982;-74
2022/05/22 06:33:45;;;;;;;5.62;1.55;;;;;;;24.30;27.80;100312.69;5375550;32;35862;-73
2022/05/22 06:36:47;;;;;;;7.32;1.85;;;;;;;22.52;30.36;100334.81;5374864;32;34801;-74
2022/05/22 06:39:53;;;;;;;2.53;1.40;;;;;;;23.27;29.62;100325.28;5389028;32;34831;-73
2022/05/22 06:42:59;;;;;;;3.50;1.30;;;;;;;25.15;26.58;100326.69;5389555;32;34982;-72
2022/05/22 06:46:03;;;;;;;6.15;1.42;;;;;;;25.33;26.99;100311.37;5376745;32;35568;-75
2022/05/22 06:49:05;;;;;;;3.92;1.30;;;;;;;24.99;26.38;100326.50;5391591;32;34732;-74
2022/05/22 06:52:07;;;;;;;;;;;;;;;25.57;25.14;100323.31;5378116;32;36164;-75
2022/05/22 06:55:10;;;;;;;4.45;1.60;;;;;;;26.11;25.01;100318.59;5388420;32;35036;-76
2022/05/22 06:58:12;;;;;;;3.22;1.40;;;;;;;25.28;26.19;100321.75;5383105;32;44485;-74
2022/05/22 07:01:16;;;;;;;2.75;1.55;;;;;;;26.16;24.73;100313.56;5380801;32;33992;-74
2022/05/22 07:04:21;;;;;;;4.45;1.40;;;;;;;25.27;26.91;100317.38;5382844;32;33445;-77
2022/05/22 07:07:23;;;;;;;3.17;1.83;;;;;;;24.29;27.04;100310.16;5374920;32;34989;-74
2022/05/22 07:13:46;;;;;;;2.87;1.20;;;;;;;25.51;26.05;100305.97;5355109;32;44970;-73
2022/05/22 07:16:48;;;;;;;2.35;1.20;;;;;;;25.64;25.10;100300.16;5381304;32;35542;-74
2022/05/22 07:19:52;;;;;;;2.30;1.27;;;;;;;25.26;26.03;100278.03;5378858;32;35618;-74
2022/05/22 07:22:54;;;;;;;4.47;1.40;;;;;;;26.20;24.98;100286.12;5373792;32;35405;-74
2022/05/22 07:28:41;;;;;;;2.92;1.62;;;;;;;26.49;24.36;100275.97;5445100;32;234871;-75
2022/05/22 07:31:43;;;;;;;4.55;1.40;;;;;;;26.35;24.81;100283.66;5463771;32;32640;-73
2022/05/22 07:34:47;;;;;;;;;;;;;;;24.55;26.08;100283.44;5450155;32;34834;-74
2022/05/22 07:37:56;;;;;;;1.85;1.20;;;;;;;24.72;26.67;100285.28;5466698;32;35076;-73
2022/05/22 07:40:58;;;;;;;5.18;1.73;;;;;;;23.42;28.67;100283.63;5450737;32;35767;-74
2022/05/22 07:44:00;;;;;;;2.28;1.58;;;;;;;24.37;27.62;100280.72;5454504;32;34844;-74
2022/05/22 07:47:02;;;;;;;;;;;;;;;27.03;24.30;100282.59;5466136;32;34936;-74
2022/05/22 07:50:17;;;;;;;2.60;1.23;;;;;;;24.01;27.38;100282.44;5448844;32;34119;-75
2022/05/22 07:53:19;;;;;;;2.03;1.00;;;;;;;25.97;24.65;100260.81;5447437;32;43134;-74
2022/05/22 07:56:22;;;;;;;1.87;1.20;;;;;;;28.81;21.07;100258.69;5434148;32;34768;-77
2022/05/22 07:59:25;;;;;;;2.55;1.30;;;;;;;29.11;20.53;100265.06;5441922;32;34747;-74
2022/05/22 08:02:27;;;;;;;4.62;1.30;;;;;;;28.66;21.53;100257.78;5449578;32;35382;-75
2022/05/22 08:05:29;;;;;;;6.78;1.42;;;;;;;26.01;23.75;100266.69;5441122;32;34709;-73
2022/05/22 08:08:31;;;;;;;3.85;1.40;;;;;;;24.56;25.94;100272.53;5450204;32;36081;-76
2022/05/22 08:11:44;;;;;;;6.03;1.40;;;;;;;26.39;23.88;100259.91;5439389;32;45074;-75
2022/05/22 08:14:46;;;;;;;3.20;1.50;;;;;;;27.74;22.02;100264.81;5442854;32;35323;-74
2022/05/22 08:17:48;;;;;;;;;;;;;;;24.34;26.23;100250.63;5465264;32;34759;-73
2022/05/22 08:20:52;;;;;;;3.45;1.10;;;;;;;25.98;24.04;100256.25;5459868;32;35229;-76
2022/05/22 08:23:55;;;;;;;2.37;1.10;;;;;;;26.91;23.04;100252.41;5485797;32;34340;-75
2022/05/22 08:26:57;;;;;;;4.35;1.50;;;;;;;25.86;23.93;100251.16;5459520;32;34450;-73
2022/05/22 08:29:59;;;;;;;3.40;1.00;;;;;;;26.63;23.12;100245.66;5466864;32;35497;-73
2022/05/22 08:33:01;;;;;;;5.65;1.30;;;;;;;26.56;23.08;100244.66;5470480;32;34619;-73
2022/05/22 08:36:04;;;;;;;3.78;1.42;;;;;;;28.47;21.41;100240.19;5479981;32;36539;-72
2022/05/22 08:39:13;;;;;;;4.35;1.40;;;;;;;27.31;22.06;100239.94;5442809;32;44628;-75
2022/05/22 08:42:21;;;;;;;3.53;1.40;;;;;;;27.99;21.96;100236.69;5454809;32;33870;-76
2022/05/22 08:45:27;;;;;;;4.35;1.30;;;;;;;28.44;21.10;100228.88;5456913;32;34691;-77
2022/05/22 08:48:40;;;;;;;3.28;1.40;;;;;;;28.16;22.03;100231.22;5458872;32;34663;-74
2022/05/22 08:51:45;;;;;;;4.05;1.37;;;;;;;28.20;22.23;100213.59;5443313;32;46681;-74
2022/05/22 08:54:50;;;;;;;4.97;1.65;;;;;;;26.92;23.93;100221.75;5441724;32;35239;-74
2022/05/22 09:01:37;;;;;;;3.45;1.42;;;;;;;26.30;24.47;100226.72;5443544;32;34157;-76
2022/05/22 09:04:41;;;;;;;5.57;1.60;;;;;;;26.98;24.09;100214.81;5437574;32;34509;-73
2022/05/22 09:07:58;;;;;;;3.45;1.60;;;;;;;26.73;24.27;100232.88;5433079;32;45968;-74
2022/05/22 09:11:17;;;;;;;2.85;1.35;;;;;;;25.67;25.58;100227.16;5446565;32;33334;-75
2022/05/22 09:14:28;;;;;;;4.47;1.60;;;;;;;26.83;24.22;100220.06;5419949;32;44657;-76
2022/05/22 09:17:35;;;;;;;4.83;1.57;;;;;;;26.23;23.93;100217.63;5464311;32;35499;-74
2022/05/22 09:20:50;;;;;;;4.87;1.50;;;;;;;27.95;22.08;100196.69;5436687;32;34897;-76
2022/05/22 09:23:56;;;;;;;4.60;1.55;;;;;;;28.26;21.38;100194.81;5471455;32;34649;-76
2022/05/22 09:27:10;;;;;;;4.65;1.33;;;;;;;30.12;19.86;100184.19;5450518;32;35174;-73
2022/05/22 09:30:37;;;;;;;3.50;1.48;;;;;;;29.04;20.48;100191.03;5438999;32;46616;-76
2022/05/22 09:34:10;;;;;;;4.97;1.35;;;;;;;27.11;22.96;100188.19;5440668;32;35260;-75
2022/05/22 09:37:34;;;;;;;4.25;1.65;;;;;;;28.73;21.51;100184.91;5410949;32;35899;-75
2022/05/22 09:40:45;;;;;;;4.12;1.30;;;;;;;27.62;22.60;100179.78;5439181;32;35412;-75
2022/05/22 09:43:52;;;;;;;3.62;1.45;;;;;;;29.58;20.08;100182.69;5441301;32;44894;-72
2022/05/22 09:47:27;;;;;;;3.65;1.40;;;;;;;28.69;19.87;100191.69;5438768;32;35183;-76
2022/05/22 09:50:59;;;;;;;4.62;1.67;;;;;;;27.04;22.22;100178.22;5432372;32;34192;-76
2022/05/22 09:54:23;;;;;;;3.53;1.40;;;;;;;28.01;20.25;100183.31;5437930;32;33029;-75
2022/05/22 09:58:03;;;;;;;3.53;1.30;;;;;;;27.88;20.88;100179.53;5439029;32;34822;-75
2022/05/22 10:01:28;;;;;;;3.40;1.25;;;;;;;27.01;22.18;100187.53;5443384;32;32915;-76
2022/05/22 10:04:37;;;;;;;4.03;1.70;;;;;;;26.31;23.06;100189.84;5438897;32;35140;-73
2022/05/22 10:08:13;;;;;;;4.65;1.65;;;;;;;27.19;22.15;100179.25;5455478;32;36317;-75
2022/05/22 10:11:34;;;;;;;4.53;1.30;;;;;;;30.06;18.82;100166.78;5449541;32;34601;-77
2022/05/22 10:14:46;;;;;;;5.15;1.30;;;;;;;29.53;19.01;100168.88;5446187;32;37361;-73
2022/05/22 10:18:07;;;;;;;2.00;1.20;;;;;;;29.70;18.91;100160.56;5431623;32;47185;-72
2022/05/22 10:21:15;;;;;;;4.90;1.47;;;;;;;27.79;21.43;100155.28;5462046;32;34992;-72
2022/05/22 10:24:38;;;;;;;10.02;1.50;;;;;;;27.91;20.57;100171.91;5453310;32;44462;-73
2022/05/22 10:27:55;;;;;;;3.17;1.40;;;;;;;28.83;19.58;100163.81;5433029;32;34481;-73
2022/05/22 10:30:58;;;;;;;4.57;1.30;;;;;;;29.04;19.45;100163.13;5435198;32;36101;-75
2022/05/22 10:34:09;;;;;;;4.82;1.40;;;;;;;28.49;20.02;100154.31;5426030;32;34719;-73
2022/05/22 10:37:21;;;;;;;2.65;1.37;;;;;;;29.84;18.88;100135.31;5441373;32;44181;-75
2022/05/22 10:40:25;;;;;;;3.33;1.47;;;;;;;29.62;19.11;100131.69;5439601;32;35076;-75
2022/05/22 10:43:27;;;;;;;3.33;1.37;;;;;;;29.59;19.49;100132.91;5453765;32;34680;-72
2022/05/22 10:46:29;;;;;;;5.10;1.50;;;;;;;30.05;19.24;100132.59;5442526;32;35003;-73
2022/05/22 10:49:49;;;;;;;3.22;1.50;;;;;;;28.41;20.38;100124.66;5439765;32;34973;-72
2022/05/22 10:52:52;;;;;;;4.57;1.37;;;;;;;27.65;21.33;100133.56;5462381;32;34788;-74
2022/05/22 10:56:00;;;;;;;3.95;1.20;;;;;;;29.22;19.55;100128.44;5447936;32;35064;-74
2022/05/22 10:59:06;;;;;;;3.15;1.27;;;;;;;30.01;18.80;100133.16;5473926;32;34047;-72
2022/05/22 11:02:29;;;;;;;2.20;1.20;;;;;;;29.50;19.18;100146.69;5449475;32;34823;-72
2022/05/22 11:05:32;;;;;;;2.70;1.35;;;;;;;29.80;18.91;100137.53;5443363;32;34460;-76
2022/05/22 11:08:35;;;;;;;4.55;1.33;;;;;;;30.51;18.56;100145.78;5453470;32;35169;-73
2022/05/22 11:11:37;;;;;;;4.78;1.30;;;;;;;28.30;20.52;100149.37;5438437;32;34367;-74
2022/05/22 11:14:40;;;;;;;4.60;2.28;;;;;;;29.51;18.86;100138.44;5425177;32;34521;-72
2022/05/22 11:17:42;;;;;;;5.75;1.30;;;;;;;28.62;20.22;100150.16;5413099;32;44501;-73
2022/05/22 11:20:50;;;;;;;3.03;1.33;;;;;;;28.47;20.54;100153.69;5435110;32;34033;-74
2022/05/22 11:24:27;;;;;;;5.12;1.42;;;;;;;26.99;22.41;100141.84;5446198;32;35084;-74
2022/05/22 11:27:37;;;;;;;3.33;1.60;;;;;;;26.69;22.90;100140.72;5413734;32;34683;-77
2022/05/22 11:30:48;;;;;;;3.40;1.25;;;;;;;24.73;25.58;100133.81;5435155;32;34058;-76
2022/05/22 11:34:23;;;;;;;2.47;1.20;;;;;;;23.47;26.65;100139.22;5406076;32;36371;-73
2022/05/22 11:37:54;;;;;;;3.83;1.45;;;;;;;25.70;23.49;100127.25;5405624;32;34868;-74
2022/05/22 11:41:10;;;;;;;3.37;1.45;;;;;;;27.38;21.80;100103.31;5435233;32;34554;-74
2022/05/22 11:44:25;;;;;;;2.53;1.40;;;;;;;26.42;23.01;100106.88;5419410;32;44440;-73
2022/05/22 11:47:58;;;;;;;4.65;1.08;;;;;;;25.33;24.20;100114.16;5423784;32;33968;-74
2022/05/22 11:51:10;;;;;;;6.43;1.30;;;;;;;28.06;21.14;100117.97;5435310;32;35301;-74
2022/05/22 11:54:31;;;;;;;4.00;1.50;;;;;;;28.59;19.73;100114.34;5403723;32;44288;-73
2022/05/22 11:58:02;;;;;;;6.57;1.42;;;;;;;29.44;19.11;100096.88;5432384;32;35084;-75
2022/05/22 12:01:19;;;;;;;5.77;1.37;;;;;;;31.16;16.85;100089.50;5417489;32;35448;-74
2022/05/22 12:04:27;;;;;;;2.65;1.05;;;;;;;29.84;18.28;100081.13;5425153;32;35870;-76
2022/05/22 12:07:57;;;;;;;5.35;1.42;;;;;;;30.34;18.10;100082.06;5435528;32;34629;-76
2022/05/22 12:11:11;;;;;;;3.80;1.30;;;;;;;29.58;18.40;100074.37;5418620;32;34163;-74
2022/05/22 12:14:26;;;;;;;4.82;1.50;;;;;;;28.05;20.26;100081.19;5387565;32;45166;-72
2022/05/22 12:17:42;;;;;;;6.70;1.50;;;;;;;26.31;22.07;100066.75;5444328;32;34415;-73
2022/05/22 12:20:54;;;;;;;2.72;1.23;;;;;;;24.96;24.13;100084.87;5417009;32;44562;-72
2022/05/22 12:24:05;;;;;;;4.93;1.85;;;;;;;25.84;23.39;100080.87;5434054;32;33093;-73
2022/05/22 12:27:21;;;;;;;2.58;1.30;;;;;;;24.80;24.70;100073.03;5431781;32;34601;-73
2022/05/22 12:30:31;;;;;;;5.97;1.50;;;;;;;25.29;24.59;100064.37;5414048;32;34398;-75
2022/05/22 12:33:35;;;;;;;4.15;1.40;;;;;;;25.04;25.15;100071.47;5438878;32;34878;-77
2022/05/22 12:36:41;;;;;;;3.10;1.40;;;;;;;25.32;25.26;100062.22;5426951;32;34957;-73
2022/05/22 12:39:48;;;;;;;4.47;1.50;;;;;;;24.12;26.35;100070.16;5432401;32;44520;-74
2022/05/22 12:42:59;;;;;;;2.87;1.50;;;;;;;23.62;27.54;100075.19;5412388;32;33956;-74
2022/05/22 12:46:03;;;;;;;4.70;1.45;;;;;;;23.05;28.37;100064.59;5433948;32;34530;-73
2022/05/22 12:49:23;;;;;;;3.53;1.60;;;;;;;23.88;27.13;100068.09;5436560;32;34210;-75
2022/05/22 12:52:28;;;;;;;4.78;1.98;;;;;;;23.97;27.16;100064.50;5437304;32;35285;-75
2022/05/22 12:55:35;;;;;;;3.53;1.62;;;;;;;24.13;26.66;100073.69;5447208;32;35417;-73
2022/05/22 12:58:40;;;;;;;3.70;1.30;;;;;;;23.97;26.04;100055.59;5440433;32;38031;-75
2022/05/22 13:01:45;;;;;;;10.98;4.55;;;;;;;24.23;26.00;100061.88;5416030;32;44776;-76
2022/05/22 13:04:54;;;;;;;1.95;1.30;;;;;;;24.50;26.17;100035.91;5433017;32;34104;-75
2022/05/22 13:07:57;;;;;;;3.05;1.50;;;;;;;24.83;25.05;100048.53;5406213;32;34723;-75
2022/05/22 13:11:30;;;;;;;3.87;1.48;;;;;;;24.45;25.55;100043.59;5437151;32;34761;-74
2022/05/22 13:15:06;;;;;;;2.53;1.30;;;;;;;23.61;26.59;100057.37;5411748;32;34473;-75
2022/05/22 13:18:16;;;;;;;4.55;1.70;;;;;;;23.81;26.43;100047.37;5407658;32;33308;-74
2022/05/22 13:21:39;;;;;;;3.25;1.40;;;;;;;24.93;25.61;100026.06;5425183;32;44450;-75
2022/05/22 13:24:50;;;;;;;5.72;1.60;;;;;;;24.51;26.55;100033.03;5399964;32;47332;-74
2022/05/22 13:27:52;;;;;;;5.32;1.60;;;;;;;24.28;26.87;100039.88;5415393;32;35978;-75
2022/05/22 13:31:03;;;;;;;;;;;;;;;24.91;25.74;100036.13;5422484;32;34879;-73
2022/05/22 13:34:14;;;;;;;6.15;2.30;;;;;;;23.53;27.59;100031.31;5413227;32;35143;-72
2022/05/22 13:37:25;;;;;;;2.90;1.33;;;;;;;24.25;26.63;100027.63;5452336;32;47002;-73
2022/05/22 13:40:33;;;;;;;4.57;1.55;;;;;;;24.57;25.73;100013.59;5422963;32;33971;-76
2022/05/22 13:43:57;;;;;;;6.68;1.30;;;;;;;24.63;25.28;100005.91;5454770;32;35445;-73
2022/05/22 13:47:20;;;;;;;4.93;1.50;;;;;;;24.78;25.18;99983.66;5444639;32;34993;-72
2022/05/22 13:54:13;;;;;;;3.67;1.30;;;;;;;24.55;26.30;99995.97;5456296;32;34866;-74
2022/05/22 13:57:17;;;;;;;3.20;1.30;;;;;;;24.71;26.15;99990.66;5438232;32;44623;-72
2022/05/22 14:00:22;;;;;;;2.50;1.50;;;;;;;23.51;28.19;100003.81;5433382;32;35577;-76
2022/05/22 14:03:33;;;;;;;4.47;1.35;;;;;;;24.93;26.46;99999.19;5444382;32;34224;-73
2022/05/22 14:06:36;;;;;;;4.28;1.48;;;;;;;23.69;27.69;99998.47;5419941;32;34696;-73
2022/05/22 14:09:40;;;;;;;4.30;1.60;;;;;;;24.28;26.17;99994.25;5419316;32;33733;-74
2022/05/22 14:12:44;;;;;;;3.10;1.40;;;;;;;24.25;25.46;100000.78;5386513;32;44316;-75
2022/05/22 14:15:54;;;;;;;1.80;1.20;;;;;;;25.10;24.15;99979.44;5396475;32;34075;-75
2022/05/22 14:19:08;;;;;;;5.00;1.45;;;;;;;24.98;24.86;99986.91;5451359;32;35184;-73
2022/05/22 14:22:13;;;;;;;1.80;1.40;;;;;;;25.27;24.88;99986.56;5427852;32;35392;-73
2022/05/22 14:25:23;;;;;;;3.55;1.30;;;;;;;24.45;26.81;99990.69;5433675;32;45133;-73
2022/05/22 14:28:36;;;;;;;4.78;1.52;;;;;;;24.19;27.53;99997.88;5411688;32;37091;-73
2022/05/22 14:31:46;;;;;;;5.03;1.40;;;;;;;24.20;27.61;99995.03;5426922;32;34914;-73
2022/05/22 14:34:48;;;;;;;5.65;1.40;;;;;;;24.07;27.59;99981.19;5433382;32;43831;-74
2022/05/22 14:37:51;;;;;;;3.58;1.50;;;;;;;24.24;27.70;99987.53;5419882;32;34487;-74
2022/05/22 14:40:55;;;;;;;5.53;1.45;;;;;;;24.18;27.56;99982.78;5434428;32;34075;-73
2022/05/22 14:44:00;;;;;;;4.37;1.40;;;;;;;24.01;27.26;99976.44;5419230;32;35068;-72
2022/05/22 14:47:04;;;;;;;1.55;1.30;;;;;;;24.45;26.87;99987.19;5431995;32;34881;-74
2022/05/22 14:50:06;;;;;;;3.08;1.20;;;;;;;24.03;26.60;99979.81;5435660;32;34741;-74
2022/05/22 14:53:10;;;;;;;;;;;;;;;24.24;26.52;99976.78;5405376;32;35536;-75
2022/05/22 14:56:17;;;;;;;4.03;1.48;;;;;;;23.97;26.90;99978.59;5420779;32;44636;-73